createdAt,value
2018-11-02T00:01:26.604Z,15.50
2018-11-02T00:03:54.017Z,14.30
2018-11-02T00:06:21.592Z,15.83
2018-11-02T00:08:48.796Z,15.10
2018-11-02T00:11:16.531Z,13.15
2018-11-02T00:13:43.853Z,12.82
2018-11-02T00:16:11.160Z,17.25
2018-11-02T00:18:38.497Z,14.20
2018-11-02T00:21:05.829Z,15.60
2018-11-02T00:23:33.150Z,12.15
2018-11-02T00:26:00.468Z,14.00
2018-11-02T00:28:27.806Z,17.10
2018-11-02T00:30:55.128Z,14.25
2018-11-02T00:33:22.467Z,15.88
2018-11-02T00:35:49.801Z,14.90
2018-11-02T00:38:17.124Z,15.72
2018-11-02T00:40:44.445Z,14.23
2018-11-02T00:43:11.752Z,14.03
2018-11-02T00:45:39.077Z,14.20
2018-11-02T00:48:06.412Z,15.50
2018-11-02T00:50:33.726Z,13.32
2018-11-02T00:53:01.109Z,13.88
2018-11-02T00:55:28.429Z,13.80
2018-11-02T00:57:55.764Z,11.25
2018-11-02T01:00:23.082Z,13.48
2018-11-02T01:02:50.397Z,16.23
2018-11-02T01:05:17.768Z,13.65
2018-11-02T01:07:45.050Z,12.90
2018-11-02T01:10:12.405Z,14.40
2018-11-02T01:12:39.716Z,13.00
2018-11-02T01:15:08.444Z,22.10
2018-11-02T01:17:35.894Z,12.70
2018-11-02T01:20:04.113Z,11.97
2018-11-02T01:22:31.442Z,13.88
2018-11-02T01:24:58.753Z,16.15
2018-11-02T01:27:26.090Z,15.00
2018-11-02T01:29:53.405Z,15.15
2018-11-02T01:32:20.725Z,15.85
2018-11-02T01:34:48.055Z,13.30
2018-11-02T01:37:15.376Z,14.78
2018-11-02T01:39:42.694Z,13.72
2018-11-02T01:42:10.024Z,14.73
2018-11-02T01:44:37.653Z,14.75
2018-11-02T01:47:05.288Z,14.25
2018-11-02T01:49:32.657Z,16.35
2018-11-02T01:52:00.005Z,17.75
2018-11-02T01:54:27.337Z,18.60
2018-11-02T01:56:54.645Z,16.02
2018-11-02T01:59:21.960Z,17.70
2018-11-02T02:01:49.257Z,18.12
2018-11-02T02:04:16.636Z,14.33
2018-11-02T02:06:44.001Z,16.15
2018-11-02T02:09:11.781Z,15.05
2018-11-02T02:11:39.139Z,14.70
2018-11-02T02:14:06.704Z,17.17
2018-11-02T02:16:34.041Z,19.10
2018-11-02T02:19:01.376Z,16.52
2018-11-02T02:21:28.700Z,16.95
2018-11-02T02:23:56.009Z,14.50
2018-11-02T02:26:23.328Z,14.70
2018-11-02T02:28:50.628Z,15.78
2018-11-02T02:31:17.973Z,13.95
2018-11-02T02:33:45.286Z,12.95
2018-11-02T02:36:12.624Z,13.72
2018-11-02T02:38:39.932Z,16.87
2018-11-02T02:41:07.257Z,14.63
2018-11-02T02:43:34.573Z,15.75
2018-11-02T02:46:01.892Z,15.08
2018-11-02T02:48:29.188Z,14.60
2018-11-02T02:50:56.529Z,21.55
2018-11-02T02:53:23.830Z,15.35
2018-11-02T02:55:51.199Z,17.05
2018-11-02T02:58:18.480Z,16.30
2018-11-02T03:00:45.785Z,13.78
2018-11-02T03:03:13.139Z,14.33
2018-11-02T03:05:40.445Z,14.25
2018-11-02T03:08:07.771Z,13.13
2018-11-02T03:10:35.183Z,15.10
2018-11-02T03:13:03.458Z,14.53
2018-11-02T03:15:30.769Z,15.65
2018-11-02T03:17:58.104Z,14.10
2018-11-02T03:20:25.418Z,12.70
2018-11-02T03:22:52.754Z,14.90
2018-11-02T03:25:20.068Z,13.60
2018-11-02T03:27:47.408Z,13.25
2018-11-02T03:30:14.973Z,13.88
2018-11-02T03:32:42.311Z,14.33
2018-11-02T03:35:09.813Z,16.27
2018-11-02T03:37:37.140Z,14.05
2018-11-02T03:40:05.022Z,14.30
2018-11-02T03:42:32.346Z,19.70
2018-11-02T03:44:59.630Z,16.07
2018-11-02T03:47:26.977Z,13.50
2018-11-02T03:49:54.296Z,14.47
2018-11-02T03:52:30.417Z,12.93
2018-11-02T03:54:58.186Z,13.80
2018-11-02T03:57:25.530Z,13.35
2018-11-02T03:59:52.837Z,16.55
2018-11-02T04:02:20.148Z,13.15
2018-11-02T04:04:47.506Z,12.88
2018-11-02T04:07:14.821Z,12.65
2018-11-02T04:09:43.223Z,13.10
2018-11-02T04:12:10.485Z,13.30
2018-11-02T04:14:37.817Z,13.55
2018-11-02T04:17:05.613Z,15.40
2018-11-02T04:19:32.940Z,12.85
2018-11-02T04:22:00.259Z,12.80
2018-11-02T04:24:27.617Z,12.82
2018-11-02T04:26:54.940Z,14.53
2018-11-02T04:29:22.273Z,14.45
2018-11-02T04:31:50.635Z,11.22
2018-11-02T04:34:17.971Z,13.38
2018-11-02T04:36:45.288Z,13.65
2018-11-02T04:39:13.717Z,11.70
2018-11-02T04:41:41.025Z,13.58
2018-11-02T04:44:09.380Z,15.90
2018-11-02T04:46:37.260Z,13.53
2018-11-02T04:49:05.317Z,11.43
2018-11-02T04:51:32.672Z,11.73
2018-11-02T04:54:00.018Z,14.38
2018-11-02T04:56:27.359Z,12.33
2018-11-02T04:58:54.685Z,12.90
2018-11-02T05:01:22.283Z,12.33
2018-11-02T05:03:49.759Z,12.75
2018-11-02T05:06:17.095Z,12.35
2018-11-02T05:08:44.796Z,12.90
2018-11-02T05:11:12.555Z,13.80
2018-11-02T05:13:40.144Z,12.05
2018-11-02T05:16:07.664Z,13.80
2018-11-02T05:18:35.233Z,17.15
2018-11-02T05:21:02.635Z,13.93
2018-11-02T05:23:29.956Z,12.47
2018-11-02T05:25:57.419Z,13.03
2018-11-02T05:28:24.764Z,10.72
2018-11-02T05:30:52.090Z,10.80
2018-11-02T05:33:19.384Z,12.33
2018-11-02T05:35:46.715Z,11.63
2018-11-02T05:38:14.048Z,13.25
2018-11-02T05:40:41.379Z,13.35
2018-11-02T05:43:08.678Z,12.58
2018-11-02T05:45:36.012Z,10.32
2018-11-02T05:48:03.374Z,12.65
2018-11-02T05:50:30.737Z,10.80
2018-11-02T05:52:58.113Z,10.10
2018-11-02T05:55:25.469Z,10.78
2018-11-02T05:57:52.851Z,11.03
2018-11-02T06:00:20.864Z,9.85
2018-11-02T06:02:48.190Z,11.70
2018-11-02T06:05:15.515Z,11.75
2018-11-02T06:07:42.940Z,16.65
2018-11-02T06:10:10.224Z,10.55
2018-11-02T06:12:37.580Z,10.35
2018-11-02T06:15:04.972Z,11.03
2018-11-02T06:17:32.325Z,10.28
2018-11-02T06:19:59.733Z,10.95
2018-11-02T06:22:26.967Z,10.75
2018-11-02T06:24:54.297Z,13.30
2018-11-02T06:27:21.620Z,12.63
2018-11-02T06:29:48.940Z,11.38
2018-11-02T06:32:16.269Z,10.88
2018-11-02T06:34:43.600Z,12.18
2018-11-02T06:37:10.909Z,13.48
2018-11-02T06:39:38.220Z,14.70
2018-11-02T06:42:05.548Z,11.68
2018-11-02T06:44:33.698Z,11.90
2018-11-02T06:47:01.028Z,12.20
2018-11-02T06:49:28.353Z,12.55
2018-11-02T06:51:55.680Z,14.40
2018-11-02T06:54:23.025Z,11.60
2018-11-02T06:56:50.361Z,15.78
2018-11-02T06:59:17.830Z,12.88
2018-11-02T07:01:45.042Z,12.10
2018-11-02T07:04:12.860Z,10.88
2018-11-02T07:06:40.260Z,11.00
2018-11-02T07:09:09.155Z,10.25
2018-11-02T07:11:36.497Z,10.25
2018-11-02T07:14:03.865Z,10.45
2018-11-02T07:16:31.184Z,11.43
2018-11-02T07:18:58.454Z,9.33
2018-11-02T07:21:25.807Z,10.70
2018-11-02T07:23:53.123Z,9.60
2018-11-02T07:26:20.427Z,9.78
2018-11-02T07:28:47.766Z,9.05
2018-11-02T07:31:15.172Z,9.63
2018-11-02T07:33:42.515Z,8.90
2018-11-02T07:36:09.852Z,10.13
2018-11-02T07:38:37.213Z,8.73
2018-11-02T07:41:04.859Z,9.05
2018-11-02T07:43:32.147Z,10.60
2018-11-02T07:45:59.525Z,9.55
2018-11-02T07:48:26.854Z,10.58
2018-11-02T07:50:54.176Z,6.17
2018-11-02T07:53:21.537Z,5.53
2018-11-02T07:55:48.881Z,5.72
2018-11-02T07:58:16.246Z,7.30
2018-11-02T08:00:43.576Z,5.90
2018-11-02T08:03:10.936Z,5.85
2018-11-02T08:05:38.296Z,5.60
2018-11-02T08:08:05.632Z,5.40
2018-11-02T08:10:32.945Z,5.40
2018-11-02T08:13:00.292Z,3.72
2018-11-02T08:15:27.629Z,7.20
2018-11-02T08:17:54.987Z,4.80
2018-11-02T08:20:22.333Z,8.45
2018-11-02T08:22:49.696Z,5.22
2018-11-02T08:25:17.020Z,5.42
2018-11-02T08:27:44.409Z,4.60
2018-11-02T08:30:11.899Z,3.60
2018-11-02T08:32:39.287Z,8.68
2018-11-02T08:35:08.553Z,5.28
2018-11-02T08:37:35.896Z,5.37
2018-11-02T08:40:03.389Z,4.70
2018-11-02T08:42:31.013Z,4.80
2018-11-02T08:44:58.361Z,6.97
2018-11-02T08:47:25.725Z,5.25
2018-11-02T08:49:53.100Z,4.97
2018-11-02T08:52:20.538Z,5.30
2018-11-02T08:54:47.764Z,5.63
2018-11-02T08:57:15.121Z,8.43
2018-11-02T08:59:42.554Z,8.23
2018-11-02T09:02:09.793Z,5.30
2018-11-02T09:04:38.049Z,7.80
2018-11-02T09:07:05.543Z,5.67
2018-11-02T09:09:32.843Z,5.40
2018-11-02T09:12:00.209Z,7.37
2018-11-02T09:14:27.532Z,5.73
2018-11-02T09:16:54.909Z,6.67
2018-11-02T09:19:22.289Z,5.67
2018-11-02T09:21:49.676Z,7.70
2018-11-02T09:24:17.068Z,8.10
2018-11-02T09:26:44.409Z,6.67
2018-11-02T09:29:11.753Z,6.93
2018-11-02T09:31:39.206Z,7.33
2018-11-02T09:34:06.529Z,6.60
2018-11-02T09:36:33.901Z,6.53
2018-11-02T09:39:01.264Z,8.10
2018-11-02T09:41:28.617Z,8.40
2018-11-02T09:43:55.971Z,6.13
2018-11-02T09:46:23.330Z,7.00
2018-11-02T09:48:50.685Z,6.23
2018-11-02T09:51:19.114Z,6.73
2018-11-02T09:53:46.439Z,7.30
2018-11-02T09:56:13.809Z,5.13
2018-11-02T09:58:41.151Z,5.80
2018-11-02T10:01:08.538Z,6.77
2018-11-02T10:03:36.612Z,6.50
2018-11-02T10:06:04.185Z,6.40
2018-11-02T10:08:31.613Z,7.50
2018-11-02T10:10:58.998Z,6.50
2018-11-02T10:13:26.704Z,5.30
2018-11-02T10:15:54.096Z,6.77
2018-11-02T10:18:21.448Z,6.30
2018-11-02T10:20:48.786Z,6.43
2018-11-02T10:23:16.153Z,7.00
2018-11-02T10:25:43.563Z,7.83
2018-11-02T10:28:11.025Z,6.30
2018-11-02T10:30:38.406Z,6.90
2018-11-02T10:33:05.793Z,6.10
2018-11-02T10:35:33.314Z,6.23
2018-11-02T10:38:01.324Z,7.93
2018-11-02T10:40:30.649Z,6.97
2018-11-02T10:42:59.528Z,8.03
2018-11-02T10:45:31.140Z,11.47
2018-11-02T10:47:58.565Z,9.47
2018-11-02T10:50:26.249Z,9.90
2018-11-02T10:52:53.845Z,9.80
2018-11-02T10:55:21.235Z,10.33
2018-11-02T10:57:48.596Z,7.57
2018-11-02T11:00:21.801Z,8.30
2018-11-02T11:02:49.184Z,8.30
2018-11-02T11:05:17.608Z,10.10
2018-11-02T11:07:44.932Z,10.33
2018-11-02T11:10:12.302Z,11.87
2018-11-02T11:12:40.086Z,9.37
2018-11-02T11:15:07.136Z,7.47
2018-11-02T11:17:34.553Z,8.10
2018-11-02T11:20:01.921Z,9.20
2018-11-02T11:22:29.264Z,11.43
2018-11-02T11:24:56.936Z,8.57
2018-11-02T11:27:24.312Z,10.60
2018-11-02T11:29:51.656Z,13.23
2018-11-02T11:32:19.029Z,12.63
2018-11-02T11:34:46.401Z,11.93
2018-11-02T11:37:13.801Z,11.10
2018-11-02T11:39:41.183Z,9.43
2018-11-02T11:42:08.510Z,9.30
2018-11-02T11:44:35.865Z,11.17
2018-11-02T11:47:03.248Z,9.87
2018-11-02T11:49:30.645Z,9.70
2018-11-02T11:51:58.348Z,9.70
2018-11-02T11:54:26.273Z,9.70
2018-11-02T11:56:53.601Z,12.60
2018-11-02T11:59:21.024Z,14.47
2018-11-02T12:01:48.394Z,12.23
2018-11-02T12:04:15.808Z,13.30
2018-11-02T12:06:43.129Z,12.43
2018-11-02T12:09:10.539Z,11.60
2018-11-02T12:11:37.930Z,11.70
2018-11-02T12:14:05.343Z,10.90
2018-11-02T12:16:32.709Z,11.53
2018-11-02T12:19:00.071Z,12.50
2018-11-02T12:21:27.429Z,12.63
2018-11-02T12:23:54.776Z,13.23
2018-11-02T12:26:23.144Z,11.93
2018-11-02T12:28:50.548Z,11.93
2018-11-02T12:31:17.854Z,13.30
2018-11-02T12:33:45.169Z,12.80
2018-11-02T12:36:12.691Z,14.57
2018-11-02T12:38:40.009Z,11.77
2018-11-02T12:41:07.381Z,12.77
2018-11-02T12:43:34.799Z,12.90
2018-11-02T12:46:02.121Z,12.50
2018-11-02T12:48:30.109Z,10.70
2018-11-02T12:50:57.379Z,12.60
2018-11-02T12:53:24.697Z,13.57
2018-11-02T12:55:52.025Z,12.53
2018-11-02T12:58:20.332Z,10.93
2018-11-02T13:00:47.677Z,11.17
2018-11-02T13:03:15.028Z,14.13
2018-11-02T13:05:42.370Z,10.67
2018-11-02T13:08:09.700Z,11.10
2018-11-02T13:10:37.048Z,12.50
2018-11-02T13:13:04.560Z,13.23
2018-11-02T13:15:32.197Z,13.03
2018-11-02T13:17:59.555Z,12.87
2018-11-02T13:20:26.859Z,13.00
2018-11-02T13:22:54.205Z,11.53
2018-11-02T13:25:21.869Z,12.77
2018-11-02T13:27:49.948Z,9.90
2018-11-02T13:30:17.414Z,12.20
2018-11-02T13:32:44.626Z,13.90
2018-11-02T13:35:13.902Z,12.40
2018-11-02T13:37:41.832Z,11.27
2018-11-02T13:40:10.505Z,15.40
2018-11-02T13:42:38.580Z,11.70
2018-11-02T13:45:06.859Z,11.47
2018-11-02T13:47:34.210Z,11.73
2018-11-02T13:50:01.538Z,14.00
2018-11-02T13:52:28.864Z,13.20
2018-11-02T13:54:56.216Z,11.93
2018-11-02T13:57:23.541Z,12.67
2018-11-02T13:59:50.942Z,14.70
2018-11-02T14:02:18.215Z,12.93
2018-11-02T14:04:45.541Z,11.60
2018-11-02T14:07:12.897Z,13.33
2018-11-02T14:09:40.516Z,12.30
2018-11-02T14:12:08.897Z,10.07
2018-11-02T14:14:36.204Z,13.77
2018-11-02T14:17:03.524Z,13.00
2018-11-02T14:19:30.843Z,12.30
2018-11-02T14:21:58.171Z,13.43
2018-11-02T14:24:25.463Z,11.60
2018-11-02T14:26:53.350Z,11.40
2018-11-02T14:29:20.657Z,10.23
2018-11-02T14:31:47.903Z,11.73
2018-11-02T14:34:15.260Z,13.13
2018-11-02T14:36:42.602Z,13.13
2018-11-02T14:39:11.960Z,10.43
2018-11-02T14:41:39.814Z,10.03
2018-11-02T14:44:07.777Z,10.10
2018-11-02T14:46:35.432Z,12.60
2018-11-02T14:49:02.686Z,10.80
2018-11-02T14:51:30.069Z,11.67
2018-11-02T14:53:57.428Z,10.33
2018-11-02T14:56:24.775Z,9.93
2018-11-02T14:58:52.100Z,11.03
2018-11-02T15:01:19.465Z,11.50
2018-11-02T15:03:48.568Z,15.93
2018-11-02T15:06:15.893Z,12.30
2018-11-02T15:08:43.228Z,11.07
2018-11-02T15:11:10.594Z,13.00
2018-11-02T15:13:37.910Z,10.87
2018-11-02T15:16:05.289Z,11.67
2018-11-02T15:18:32.676Z,11.50
2018-11-02T15:21:00.022Z,11.07
2018-11-02T15:23:27.360Z,16.10
2018-11-02T15:25:54.733Z,10.63
2018-11-02T15:28:22.074Z,10.30
2018-11-02T15:30:49.437Z,10.63
2018-11-02T15:33:16.836Z,10.30
2018-11-02T15:35:44.194Z,10.13
2018-11-02T15:38:11.539Z,13.13
2018-11-02T15:40:38.896Z,9.33
2018-11-02T15:43:06.257Z,10.80
2018-11-02T15:45:33.608Z,8.53
2018-11-02T15:48:00.973Z,11.83
2018-11-02T15:50:28.312Z,12.18
2018-11-02T15:52:56.354Z,14.33
2018-11-02T15:55:23.724Z,9.57
2018-11-02T15:57:51.084Z,9.10
2018-11-02T16:00:19.465Z,7.83
2018-11-02T16:02:48.274Z,10.20
2018-11-02T16:05:15.647Z,8.73
2018-11-02T16:07:43.001Z,9.90
2018-11-02T16:10:11.244Z,10.73
2018-11-02T16:12:38.805Z,13.00
2018-11-02T16:15:07.100Z,11.43
2018-11-02T16:17:34.472Z,15.15
2018-11-02T16:20:01.910Z,8.47
2018-11-02T16:22:29.535Z,11.35
2018-11-02T16:24:56.912Z,11.22
2018-11-02T16:27:24.368Z,14.63
2018-11-02T16:29:51.732Z,12.70
2018-11-02T16:32:19.184Z,13.03
2018-11-02T16:34:46.559Z,16.67
2018-11-02T16:37:13.987Z,17.10
2018-11-02T16:39:41.321Z,15.90
2018-11-02T16:42:09.052Z,22.20
2018-11-02T16:44:36.386Z,21.62
2018-11-02T16:47:03.734Z,17.82
2018-11-02T16:49:31.140Z,18.55
2018-11-02T16:51:58.472Z,28.75
2018-11-02T16:54:25.873Z,33.77
2018-11-02T16:56:53.214Z,19.30
2018-11-02T16:59:20.561Z,16.62
2018-11-02T17:01:47.919Z,24.52
2018-11-02T17:04:15.970Z,35.75
2018-11-02T17:06:43.329Z,29.18
2018-11-02T17:09:12.172Z,23.85
2018-11-02T17:11:39.592Z,17.90
2018-11-02T17:14:07.140Z,17.07
2018-11-02T17:16:34.480Z,14.80
2018-11-02T17:19:01.837Z,21.65
2018-11-02T17:21:29.193Z,18.62
2018-11-02T17:23:56.569Z,22.98
2018-11-02T17:26:23.926Z,17.27
2018-11-02T17:28:51.285Z,19.32
2018-11-02T17:31:18.622Z,20.32
2018-11-02T17:33:45.981Z,22.10
2018-11-02T17:36:13.467Z,19.25
2018-11-02T17:38:40.844Z,21.12
2018-11-02T17:41:08.687Z,20.30
2018-11-02T17:43:36.038Z,24.57
2018-11-02T17:46:03.429Z,22.45
2018-11-02T17:48:30.756Z,23.98
2018-11-02T17:50:58.097Z,19.45
2018-11-02T17:53:25.499Z,24.25
2018-11-02T17:55:52.747Z,17.92
2018-11-02T17:58:20.088Z,19.48
2018-11-02T18:00:47.424Z,23.00
2018-11-02T18:03:14.778Z,22.22
2018-11-02T18:05:42.153Z,23.75
2018-11-02T18:08:09.559Z,26.50
2018-11-02T18:10:36.815Z,22.55
2018-11-02T18:13:05.151Z,24.95
2018-11-02T18:15:32.513Z,21.48
2018-11-02T18:17:59.861Z,24.40
2018-11-02T18:20:27.224Z,23.32
2018-11-02T18:22:54.538Z,28.02
2018-11-02T18:25:21.881Z,23.50
2018-11-02T18:27:49.224Z,41.18
2018-11-02T18:30:16.585Z,24.67
2018-11-02T18:32:44.117Z,20.60
2018-11-02T18:35:11.486Z,27.93
2018-11-02T18:37:39.486Z,20.75
2018-11-02T18:40:08.409Z,23.15
2018-11-02T18:42:35.954Z,31.02
2018-11-02T18:45:04.056Z,27.35
2018-11-02T18:47:37.178Z,23.98
2018-11-02T18:50:04.890Z,26.37
2018-11-02T18:52:32.225Z,23.05
2018-11-02T18:54:59.567Z,23.27
2018-11-02T18:57:27.258Z,26.45
2018-11-02T18:59:54.596Z,32.60
2018-11-02T19:02:21.933Z,24.70
2018-11-02T19:04:49.312Z,27.82
2018-11-02T19:07:16.689Z,28.52
2018-11-02T19:09:44.021Z,27.42
2018-11-02T19:12:11.388Z,22.07
2018-11-02T19:14:38.732Z,23.45
2018-11-02T19:17:06.114Z,24.82
2018-11-02T19:19:33.496Z,27.15
2018-11-02T19:22:00.779Z,27.73
2018-11-02T19:24:28.108Z,31.50
2018-11-02T19:26:55.536Z,27.58
2018-11-02T19:29:22.874Z,28.90
2018-11-02T19:31:50.265Z,31.12
2018-11-02T19:34:17.818Z,33.18
2018-11-02T19:36:45.098Z,35.78
2018-11-02T19:39:12.461Z,33.42
2018-11-02T19:41:39.815Z,30.65
2018-11-02T19:44:07.259Z,32.45
2018-11-02T19:46:34.585Z,29.52
2018-11-02T19:49:02.136Z,36.17
2018-11-02T19:51:29.468Z,40.52
2018-11-02T19:53:56.889Z,29.42
2018-11-02T19:56:24.253Z,36.25
2018-11-02T19:58:51.752Z,31.77
2018-11-02T20:01:19.109Z,34.65
2018-11-02T20:03:46.506Z,30.25
2018-11-02T20:06:13.941Z,33.85
2018-11-02T20:08:41.320Z,40.05
2018-11-02T20:11:08.640Z,45.15
2018-11-02T20:13:36.027Z,35.38
2018-11-02T20:16:03.400Z,42.62
2018-11-02T20:18:30.784Z,41.92
2018-11-02T20:20:58.136Z,41.30
2018-11-02T20:23:25.501Z,38.15
2018-11-02T20:25:52.891Z,37.63
2018-11-02T20:28:20.201Z,36.55
2018-11-02T20:30:47.535Z,41.88
2018-11-02T20:33:14.850Z,45.80
2018-11-02T20:35:42.111Z,50.00
2018-11-02T20:38:09.399Z,41.63
2018-11-02T20:40:36.782Z,40.85
2018-11-02T20:43:04.284Z,42.40
2018-11-02T20:45:31.603Z,46.83
2018-11-02T20:47:59.145Z,36.00
2018-11-02T20:50:26.480Z,37.58
2018-11-02T20:52:53.924Z,38.63
2018-11-02T20:55:21.413Z,37.45
2018-11-02T20:57:48.830Z,36.70
2018-11-02T21:00:17.717Z,40.52
2018-11-02T21:02:45.171Z,34.00
2018-11-02T21:05:13.666Z,36.30
2018-11-02T21:07:41.440Z,34.78
2018-11-02T21:10:11.092Z,38.10
2018-11-02T21:12:38.533Z,39.10
2018-11-02T21:15:08.497Z,40.00
2018-11-02T21:17:35.868Z,41.70
2018-11-02T21:20:04.840Z,39.38
2018-11-02T21:22:32.231Z,41.18
2018-11-02T21:24:59.636Z,39.55
2018-11-02T21:27:26.992Z,40.45
2018-11-02T21:29:54.466Z,43.92
2018-11-02T21:32:21.852Z,44.67
2018-11-02T21:34:51.345Z,40.75
2018-11-02T21:37:18.693Z,39.30
2018-11-02T21:39:46.044Z,43.95
2018-11-02T21:42:13.541Z,40.17
2018-11-02T21:44:40.996Z,42.00
2018-11-02T21:47:08.452Z,45.05
2018-11-02T21:49:35.851Z,36.68
2018-11-02T21:52:03.273Z,46.48
2018-11-02T21:54:30.638Z,39.85
2018-11-02T21:56:58.038Z,41.15
2018-11-02T21:59:25.422Z,38.15
2018-11-02T22:01:52.817Z,38.98
2018-11-02T22:04:20.258Z,39.85
2018-11-02T22:06:47.613Z,34.23
2018-11-02T22:09:15.072Z,32.20
2018-11-02T22:11:42.428Z,33.60
2018-11-02T22:14:10.787Z,37.98
2018-11-02T22:16:38.266Z,44.42
2018-11-02T22:19:05.647Z,45.40
2018-11-02T22:21:32.984Z,38.08
2018-11-02T22:24:00.339Z,36.53
2018-11-02T22:26:27.694Z,36.85
2018-11-02T22:28:55.098Z,39.30
2018-11-02T22:31:22.398Z,36.05
2018-11-02T22:33:49.721Z,36.17
2018-11-02T22:36:17.062Z,35.03
2018-11-02T22:38:44.384Z,35.13
2018-11-02T22:41:12.085Z,35.38
2018-11-02T22:43:39.425Z,31.07
2018-11-02T22:46:07.074Z,33.35
2018-11-02T22:48:34.425Z,32.63
2018-11-02T22:51:01.764Z,34.03
2018-11-02T22:53:29.085Z,29.45
2018-11-02T22:55:56.429Z,34.95
2018-11-02T22:58:23.775Z,36.13
2018-11-02T23:00:56.820Z,30.48
2018-11-02T23:03:24.169Z,30.65
2018-11-02T23:05:51.517Z,34.30
2018-11-02T23:08:18.855Z,33.18
2018-11-02T23:10:46.202Z,31.05
2018-11-02T23:13:13.536Z,35.43
2018-11-02T23:15:40.892Z,31.17
2018-11-02T23:18:08.242Z,29.45
2018-11-02T23:20:35.572Z,33.42
2018-11-02T23:23:02.908Z,32.88
2018-11-02T23:25:30.249Z,32.00
2018-11-02T23:27:57.590Z,27.65
2018-11-02T23:30:24.940Z,29.72
2018-11-02T23:32:52.256Z,27.73
2018-11-02T23:35:19.641Z,29.05
2018-11-02T23:37:46.924Z,28.65
2018-11-02T23:40:14.263Z,28.98
2018-11-02T23:42:41.609Z,31.02
2018-11-02T23:45:10.043Z,28.17
2018-11-02T23:47:37.508Z,30.08
2018-11-02T23:50:06.913Z,28.62
2018-11-02T23:52:34.238Z,31.07
2018-11-02T23:55:01.582Z,29.65
2018-11-02T23:57:28.952Z,32.08
2018-11-02T23:59:56.282Z,29.57
